sensor_id;sensor_type;location;lat;lon;timestamp;P1;durP1;ratioP1;P2;durP2;ratioP2
18304;SDS011;9278;52.156;21.048;2023-05-10T00:01:46;16.83;;;7.37;;
18304;SDS011;9278;52.156;21.048;2023-05-10T00:04:14;16.77;;;7.70;;
18304;SDS011;9278;52.156;21.048;2023-05-10T00:06:42;13.93;;;7.30;;
18304;SDS011;9278;52.156;21.048;2023-05-10T00:09:10;19.87;;;7.17;;
18304;SDS011;9278;52.156;21.048;2023-05-10T00:11:40;13.67;;;7.07;;
18304;SDS011;9278;52.156;21.048;2023-05-10T00:14:08;14.67;;;6.63;;
18304;SDS011;9278;52.156;21.048;2023-05-10T00:16:36;14.03;;;7.07;;
18304;SDS011;9278;52.156;21.048;2023-05-10T00:19:04;14.37;;;7.13;;
18304;SDS011;9278;52.156;21.048;2023-05-10T00:21:33;14.10;;;6.80;;
18304;SDS011;9278;52.156;21.048;2023-05-10T00:24:01;20.30;;;6.80;;
18304;SDS011;9278;52.156;21.048;2023-05-10T00:26:29;15.97;;;7.40;;
18304;SDS011;9278;52.156;21.048;2023-05-10T00:28:59;16.93;;;6.70;;
18304;SDS011;9278;52.156;21.048;2023-05-10T00:31:27;16.13;;;7.30;;
18304;SDS011;9278;52.156;21.048;2023-05-10T00:33:56;14.03;;;6.70;;
18304;SDS011;9278;52.156;21.048;2023-05-10T00:36:24;16.07;;;6.33;;
18304;SDS011;9278;52.156;21.048;2023-05-10T00:38:54;13.83;;;6.47;;
18304;SDS011;9278;52.156;21.048;2023-05-10T00:41:22;13.77;;;6.47;;
18304;SDS011;9278;52.156;21.048;2023-05-10T00:43:50;15.33;;;6.40;;
18304;SDS011;9278;52.156;21.048;2023-05-10T00:46:20;10.57;;;6.20;;
18304;SDS011;9278;52.156;21.048;2023-05-10T00:48:48;15.30;;;6.53;;
18304;SDS011;9278;52.156;21.048;2023-05-10T00:51:17;17.43;;;6.30;;
18304;SDS011;9278;52.156;21.048;2023-05-10T00:53:45;15.17;;;6.43;;
18304;SDS011;9278;52.156;21.048;2023-05-10T00:56:14;14.07;;;6.80;;
18304;SDS011;9278;52.156;21.048;2023-05-10T00:58:42;12.67;;;6.20;;
18304;SDS011;9278;52.156;21.048;2023-05-10T01:01:11;15.60;;;6.50;;
18304;SDS011;9278;52.156;21.048;2023-05-10T01:03:41;10.47;;;5.53;;
18304;SDS011;9278;52.156;21.048;2023-05-10T01:06:09;13.80;;;5.80;;
18304;SDS011;9278;52.156;21.048;2023-05-10T01:08:37;14.83;;;6.20;;
18304;SDS011;9278;52.156;21.048;2023-05-10T01:11:06;12.13;;;5.97;;
18304;SDS011;9278;52.156;21.048;2023-05-10T01:13:35;12.63;;;6.10;;
18304;SDS011;9278;52.156;21.048;2023-05-10T01:16:05;15.87;;;6.80;;
18304;SDS011;9278;52.156;21.048;2023-05-10T01:18:35;11.27;;;5.60;;
18304;SDS011;9278;52.156;21.048;2023-05-10T01:21:11;13.00;;;5.60;;
18304;SDS011;9278;52.156;21.048;2023-05-10T01:29:53;13.50;;;6.37;;
18304;SDS011;9278;52.156;21.048;2023-05-10T01:32:44;10.57;;;5.93;;
18304;SDS011;9278;52.156;21.048;2023-05-10T01:35:20;11.40;;;6.00;;
18304;SDS011;9278;52.156;21.048;2023-05-10T01:37:56;12.20;;;5.03;;
18304;SDS011;9278;52.156;21.048;2023-05-10T01:40:35;11.30;;;6.03;;
18304;SDS011;9278;52.156;21.048;2023-05-10T01:43:08;15.20;;;5.70;;
18304;SDS011;9278;52.156;21.048;2023-05-10T01:45:46;13.63;;;6.17;;
18304;SDS011;9278;52.156;21.048;2023-05-10T01:48:23;15.00;;;6.07;;
18304;SDS011;9278;52.156;21.048;2023-05-10T01:50:54;12.00;;;5.83;;
18304;SDS011;9278;52.156;21.048;2023-05-10T01:53:25;14.57;;;5.90;;
18304;SDS011;9278;52.156;21.048;2023-05-10T01:55:55;16.20;;;5.97;;
18304;SDS011;9278;52.156;21.048;2023-05-10T01:58:30;11.90;;;5.97;;
18304;SDS011;9278;52.156;21.048;2023-05-10T02:01:00;19.57;;;6.00;;
18304;SDS011;9278;52.156;21.048;2023-05-10T02:03:33;12.03;;;5.73;;
18304;SDS011;9278;52.156;21.048;2023-05-10T02:06:04;16.80;;;5.73;;
18304;SDS011;9278;52.156;21.048;2023-05-10T02:08:33;11.30;;;6.00;;
18304;SDS011;9278;52.156;21.048;2023-05-10T02:11:03;12.60;;;5.57;;
18304;SDS011;9278;52.156;21.048;2023-05-10T02:13:32;17.47;;;5.73;;
18304;SDS011;9278;52.156;21.048;2023-05-10T02:16:03;10.33;;;5.70;;
18304;SDS011;9278;52.156;21.048;2023-05-10T02:18:35;9.63;;;5.27;;
18304;SDS011;9278;52.156;21.048;2023-05-10T02:21:04;17.40;;;4.90;;
18304;SDS011;9278;52.156;21.048;2023-05-10T02:23:32;13.30;;;5.20;;
18304;SDS011;9278;52.156;21.048;2023-05-10T02:26:01;13.93;;;5.20;;
18304;SDS011;9278;52.156;21.048;2023-05-10T02:28:32;15.03;;;5.03;;
18304;SDS011;9278;52.156;21.048;2023-05-10T02:31:00;12.87;;;4.77;;
18304;SDS011;9278;52.156;21.048;2023-05-10T02:33:29;12.03;;;5.33;;
18304;SDS011;9278;52.156;21.048;2023-05-10T02:36:00;11.67;;;5.30;;
18304;SDS011;9278;52.156;21.048;2023-05-10T02:38:30;10.73;;;5.40;;
18304;SDS011;9278;52.156;21.048;2023-05-10T02:41:00;9.97;;;5.30;;
18304;SDS011;9278;52.156;21.048;2023-05-10T02:43:31;13.60;;;5.60;;
18304;SDS011;9278;52.156;21.048;2023-05-10T02:46:00;14.27;;;6.17;;
18304;SDS011;9278;52.156;21.048;2023-05-10T02:48:29;11.70;;;5.73;;
18304;SDS011;9278;52.156;21.048;2023-05-10T02:51:00;14.13;;;6.23;;
18304;SDS011;9278;52.156;21.048;2023-05-10T02:53:34;11.03;;;5.57;;
18304;SDS011;9278;52.156;21.048;2023-05-10T02:56:05;14.10;;;5.83;;
18304;SDS011;9278;52.156;21.048;2023-05-10T02:58:39;14.70;;;6.10;;
18304;SDS011;9278;52.156;21.048;2023-05-10T03:01:08;10.83;;;5.47;;
18304;SDS011;9278;52.156;21.048;2023-05-10T03:03:37;11.53;;;5.40;;
18304;SDS011;9278;52.156;21.048;2023-05-10T03:06:07;13.43;;;5.53;;
18304;SDS011;9278;52.156;21.048;2023-05-10T03:08:36;8.63;;;5.00;;
18304;SDS011;9278;52.156;21.048;2023-05-10T03:11:10;10.57;;;5.73;;
18304;SDS011;9278;52.156;21.048;2023-05-10T03:13:54;16.53;;;5.57;;
18304;SDS011;9278;52.156;21.048;2023-05-10T03:16:36;13.43;;;5.30;;
18304;SDS011;9278;52.156;21.048;2023-05-10T03:19:16;9.60;;;5.20;;
18304;SDS011;9278;52.156;21.048;2023-05-10T03:21:51;13.97;;;5.20;;
18304;SDS011;9278;52.156;21.048;2023-05-10T03:24:23;9.87;;;4.97;;
18304;SDS011;9278;52.156;21.048;2023-05-10T03:26:57;15.13;;;5.57;;
18304;SDS011;9278;52.156;21.048;2023-05-10T03:29:29;11.60;;;5.70;;
18304;SDS011;9278;52.156;21.048;2023-05-10T03:31:59;10.17;;;5.27;;
18304;SDS011;9278;52.156;21.048;2023-05-10T03:34:29;13.30;;;5.20;;
18304;SDS011;9278;52.156;21.048;2023-05-10T03:37:00;10.87;;;5.37;;
18304;SDS011;9278;52.156;21.048;2023-05-10T03:39:30;10.37;;;4.80;;
18304;SDS011;9278;52.156;21.048;2023-05-10T03:42:00;9.53;;;5.10;;
18304;SDS011;9278;52.156;21.048;2023-05-10T03:44:29;13.80;;;5.30;;
18304;SDS011;9278;52.156;21.048;2023-05-10T03:46:59;12.83;;;5.50;;
18304;SDS011;9278;52.156;21.048;2023-05-10T03:49:28;13.17;;;5.67;;
18304;SDS011;9278;52.156;21.048;2023-05-10T03:51:56;12.33;;;5.50;;
18304;SDS011;9278;52.156;21.048;2023-05-10T03:54:25;13.97;;;5.50;;
18304;SDS011;9278;52.156;21.048;2023-05-10T03:56:54;11.40;;;4.90;;
18304;SDS011;9278;52.156;21.048;2023-05-10T03:59:22;12.37;;;5.10;;
18304;SDS011;9278;52.156;21.048;2023-05-10T04:01:51;13.63;;;5.00;;
18304;SDS011;9278;52.156;21.048;2023-05-10T04:04:19;9.90;;;4.87;;
18304;SDS011;9278;52.156;21.048;2023-05-10T04:06:49;11.73;;;5.10;;
18304;SDS011;9278;52.156;21.048;2023-05-10T04:09:18;18.00;;;5.73;;
18304;SDS011;9278;52.156;21.048;2023-05-10T04:11:47;11.80;;;5.13;;
18304;SDS011;9278;52.156;21.048;2023-05-10T04:14:16;14.13;;;5.83;;
18304;SDS011;9278;52.156;21.048;2023-05-10T04:16:44;15.83;;;5.50;;
18304;SDS011;9278;52.156;21.048;2023-05-10T04:19:12;15.10;;;5.93;;
18304;SDS011;9278;52.156;21.048;2023-05-10T04:21:40;13.23;;;5.73;;
18304;SDS011;9278;52.156;21.048;2023-05-10T04:24:08;12.37;;;5.20;;
18304;SDS011;9278;52.156;21.048;2023-05-10T04:26:39;11.07;;;4.90;;
18304;SDS011;9278;52.156;21.048;2023-05-10T04:29:08;13.47;;;5.00;;
18304;SDS011;9278;52.156;21.048;2023-05-10T04:31:36;10.70;;;5.13;;
18304;SDS011;9278;52.156;21.048;2023-05-10T04:34:04;10.73;;;4.83;;
18304;SDS011;9278;52.156;21.048;2023-05-10T04:36:33;13.70;;;5.30;;
18304;SDS011;9278;52.156;21.048;2023-05-10T04:39:02;11.03;;;5.37;;
18304;SDS011;9278;52.156;21.048;2023-05-10T04:41:31;14.40;;;5.57;;
18304;SDS011;9278;52.156;21.048;2023-05-10T04:43:59;14.57;;;5.90;;
18304;SDS011;9278;52.156;21.048;2023-05-10T04:46:28;14.07;;;5.10;;
18304;SDS011;9278;52.156;21.048;2023-05-10T04:48:56;12.20;;;5.30;;
18304;SDS011;9278;52.156;21.048;2023-05-10T04:51:25;18.17;;;4.80;;
18304;SDS011;9278;52.156;21.048;2023-05-10T04:53:53;11.50;;;5.00;;
18304;SDS011;9278;52.156;21.048;2023-05-10T04:56:32;11.23;;;4.97;;
18304;SDS011;9278;52.156;21.048;2023-05-10T04:59:00;13.03;;;5.23;;
18304;SDS011;9278;52.156;21.048;2023-05-10T05:01:30;11.43;;;4.60;;
18304;SDS011;9278;52.156;21.048;2023-05-10T05:03:58;11.17;;;5.23;;
18304;SDS011;9278;52.156;21.048;2023-05-10T05:06:26;13.93;;;5.20;;
18304;SDS011;9278;52.156;21.048;2023-05-10T05:08:55;13.47;;;5.03;;
18304;SDS011;9278;52.156;21.048;2023-05-10T05:11:23;13.97;;;5.87;;
18304;SDS011;9278;52.156;21.048;2023-05-10T05:13:51;10.80;;;4.90;;
18304;SDS011;9278;52.156;21.048;2023-05-10T05:16:19;13.70;;;5.27;;
18304;SDS011;9278;52.156;21.048;2023-05-10T05:18:49;16.57;;;5.10;;
18304;SDS011;9278;52.156;21.048;2023-05-10T05:21:18;9.80;;;4.77;;
18304;SDS011;9278;52.156;21.048;2023-05-10T05:23:47;11.20;;;5.40;;
18304;SDS011;9278;52.156;21.048;2023-05-10T05:26:16;12.07;;;5.00;;
18304;SDS011;9278;52.156;21.048;2023-05-10T05:28:44;11.43;;;4.80;;
18304;SDS011;9278;52.156;21.048;2023-05-10T05:31:12;15.00;;;4.70;;
18304;SDS011;9278;52.156;21.048;2023-05-10T05:33:40;8.20;;;4.40;;
18304;SDS011;9278;52.156;21.048;2023-05-10T05:36:10;12.80;;;4.60;;
18304;SDS011;9278;52.156;21.048;2023-05-10T05:38:38;10.27;;;4.43;;
18304;SDS011;9278;52.156;21.048;2023-05-10T05:41:06;12.75;;;4.55;;
18304;SDS011;9278;52.156;21.048;2023-05-10T05:43:34;8.23;;;4.28;;
18304;SDS011;9278;52.156;21.048;2023-05-10T05:46:04;13.95;;;4.43;;
18304;SDS011;9278;52.156;21.048;2023-05-10T05:48:32;13.15;;;4.45;;
18304;SDS011;9278;52.156;21.048;2023-05-10T05:51:00;9.60;;;4.47;;
18304;SDS011;9278;52.156;21.048;2023-05-10T05:53:33;15.02;;;4.60;;
18304;SDS011;9278;52.156;21.048;2023-05-10T05:56:01;12.15;;;4.50;;
18304;SDS011;9278;52.156;21.048;2023-05-10T05:58:30;8.02;;;4.18;;
18304;SDS011;9278;52.156;21.048;2023-05-10T06:00:58;14.80;;;4.70;;
18304;SDS011;9278;52.156;21.048;2023-05-10T06:03:26;10.70;;;4.40;;
18304;SDS011;9278;52.156;21.048;2023-05-10T06:05:54;12.82;;;4.28;;
18304;SDS011;9278;52.156;21.048;2023-05-10T06:08:23;22.38;;;5.45;;
18304;SDS011;9278;52.156;21.048;2023-05-10T06:10:53;63.60;;;8.48;;
18304;SDS011;9278;52.156;21.048;2023-05-10T06:13:21;37.72;;;6.28;;
18304;SDS011;9278;52.156;21.048;2023-05-10T06:15:49;23.98;;;5.05;;
18304;SDS011;9278;52.156;21.048;2023-05-10T06:18:18;19.13;;;4.82;;
18304;SDS011;9278;52.156;21.048;2023-05-10T06:20:46;11.80;;;5.00;;
18304;SDS011;9278;52.156;21.048;2023-05-10T06:23:14;11.30;;;4.85;;
18304;SDS011;9278;52.156;21.048;2023-05-10T06:25:42;14.95;;;4.70;;
18304;SDS011;9278;52.156;21.048;2023-05-10T06:28:12;8.88;;;4.50;;
18304;SDS011;9278;52.156;21.048;2023-05-10T06:30:40;15.50;;;4.50;;
18304;SDS011;9278;52.156;21.048;2023-05-10T06:33:08;8.48;;;4.05;;
18304;SDS011;9278;52.156;21.048;2023-05-10T06:35:36;9.23;;;4.15;;
18304;SDS011;9278;52.156;21.048;2023-05-10T06:38:05;9.85;;;3.65;;
18304;SDS011;9278;52.156;21.048;2023-05-10T06:40:33;15.35;;;4.35;;
18304;SDS011;9278;52.156;21.048;2023-05-10T06:43:02;10.20;;;3.70;;
18304;SDS011;9278;52.156;21.048;2023-05-10T06:45:31;12.20;;;4.03;;
18304;SDS011;9278;52.156;21.048;2023-05-10T06:48:00;11.05;;;3.38;;
18304;SDS011;9278;52.156;21.048;2023-05-10T06:50:28;7.35;;;3.60;;
18304;SDS011;9278;52.156;21.048;2023-05-10T06:52:56;8.25;;;3.40;;
18304;SDS011;9278;52.156;21.048;2023-05-10T06:55:25;9.18;;;3.50;;
18304;SDS011;9278;52.156;21.048;2023-05-10T06:57:53;9.82;;;3.28;;
18304;SDS011;9278;52.156;21.048;2023-05-10T07:00:22;6.53;;;3.10;;
18304;SDS011;9278;52.156;21.048;2023-05-10T07:02:52;7.85;;;3.42;;
18304;SDS011;9278;52.156;21.048;2023-05-10T07:05:20;8.38;;;3.88;;
18304;SDS011;9278;52.156;21.048;2023-05-10T07:07:48;9.18;;;3.15;;
18304;SDS011;9278;52.156;21.048;2023-05-10T07:10:18;13.23;;;3.55;;
18304;SDS011;9278;52.156;21.048;2023-05-10T07:12:46;8.45;;;4.07;;
18304;SDS011;9278;52.156;21.048;2023-05-10T07:15:15;7.40;;;3.17;;
18304;SDS011;9278;52.156;21.048;2023-05-10T07:17:43;9.30;;;3.00;;
18304;SDS011;9278;52.156;21.048;2023-05-10T07:20:13;8.65;;;3.28;;
18304;SDS011;9278;52.156;21.048;2023-05-10T07:22:42;8.23;;;3.10;;
18304;SDS011;9278;52.156;21.048;2023-05-10T07:25:10;9.25;;;2.90;;
18304;SDS011;9278;52.156;21.048;2023-05-10T07:27:38;6.55;;;2.80;;
18304;SDS011;9278;52.156;21.048;2023-05-10T07:30:07;6.75;;;2.92;;
18304;SDS011;9278;52.156;21.048;2023-05-10T07:32:36;8.77;;;2.70;;
18304;SDS011;9278;52.156;21.048;2023-05-10T07:35:06;6.30;;;2.80;;
18304;SDS011;9278;52.156;21.048;2023-05-10T07:37:36;6.28;;;2.80;;
18304;SDS011;9278;52.156;21.048;2023-05-10T07:40:04;4.30;;;2.63;;
18304;SDS011;9278;52.156;21.048;2023-05-10T07:42:34;4.75;;;2.35;;
18304;SDS011;9278;52.156;21.048;2023-05-10T07:45:02;4.53;;;2.22;;
18304;SDS011;9278;52.156;21.048;2023-05-10T07:47:31;4.80;;;2.97;;
18304;SDS011;9278;52.156;21.048;2023-05-10T07:49:59;6.53;;;3.38;;
18304;SDS011;9278;52.156;21.048;2023-05-10T07:52:27;7.18;;;2.40;;
18304;SDS011;9278;52.156;21.048;2023-05-10T07:54:57;7.28;;;2.30;;
18304;SDS011;9278;52.156;21.048;2023-05-10T07:57:25;7.63;;;2.75;;
18304;SDS011;9278;52.156;21.048;2023-05-10T07:59:53;8.50;;;2.53;;
18304;SDS011;9278;52.156;21.048;2023-05-10T08:02:21;7.05;;;2.40;;
18304;SDS011;9278;52.156;21.048;2023-05-10T08:04:50;6.40;;;2.50;;
18304;SDS011;9278;52.156;21.048;2023-05-10T08:07:18;4.82;;;2.50;;
18304;SDS011;9278;52.156;21.048;2023-05-10T08:09:46;5.88;;;2.53;;
18304;SDS011;9278;52.156;21.048;2023-05-10T08:12:16;5.80;;;2.40;;
18304;SDS011;9278;52.156;21.048;2023-05-10T08:14:44;7.28;;;2.20;;
18304;SDS011;9278;52.156;21.048;2023-05-10T08:17:12;7.07;;;2.60;;
18304;SDS011;9278;52.156;21.048;2023-05-10T08:19:41;6.20;;;2.47;;
18304;SDS011;9278;52.156;21.048;2023-05-10T08:22:09;6.97;;;2.90;;
18304;SDS011;9278;52.156;21.048;2023-05-10T08:24:37;7.30;;;2.30;;
18304;SDS011;9278;52.156;21.048;2023-05-10T08:27:05;4.70;;;2.53;;
18304;SDS011;9278;52.156;21.048;2023-05-10T08:29:35;12.40;;;2.47;;
18304;SDS011;9278;52.156;21.048;2023-05-10T08:32:15;11.63;;;2.40;;
18304;SDS011;9278;52.156;21.048;2023-05-10T08:34:43;5.40;;;2.33;;
18304;SDS011;9278;52.156;21.048;2023-05-10T08:37:12;10.90;;;2.67;;
18304;SDS011;9278;52.156;21.048;2023-05-10T08:39:40;4.70;;;2.28;;
18304;SDS011;9278;52.156;21.048;2023-05-10T08:42:08;3.53;;;2.10;;
18304;SDS011;9278;52.156;21.048;2023-05-10T08:44:38;6.15;;;2.10;;
18304;SDS011;9278;52.156;21.048;2023-05-10T08:47:06;4.50;;;2.15;;
18304;SDS011;9278;52.156;21.048;2023-05-10T08:49:36;6.03;;;2.38;;
18304;SDS011;9278;52.156;21.048;2023-05-10T08:52:05;5.57;;;2.10;;
18304;SDS011;9278;52.156;21.048;2023-05-10T08:54:34;12.93;;;3.72;;
18304;SDS011;9278;52.156;21.048;2023-05-10T08:57:03;9.90;;;2.40;;
18304;SDS011;9278;52.156;21.048;2023-05-10T08:59:32;7.57;;;2.50;;
18304;SDS011;9278;52.156;21.048;2023-05-10T09:02:01;10.23;;;2.50;;
18304;SDS011;9278;52.156;21.048;2023-05-10T09:04:32;3.72;;;1.85;;
18304;SDS011;9278;52.156;21.048;2023-05-10T09:07:00;10.32;;;2.28;;
18304;SDS011;9278;52.156;21.048;2023-05-10T09:09:29;8.85;;;2.50;;
18304;SDS011;9278;52.156;21.048;2023-05-10T09:11:57;6.43;;;2.38;;
18304;SDS011;9278;52.156;21.048;2023-05-10T09:14:25;4.65;;;2.30;;
18304;SDS011;9278;52.156;21.048;2023-05-10T09:16:54;8.40;;;2.65;;
18304;SDS011;9278;52.156;21.048;2023-05-10T09:19:24;5.30;;;2.30;;
18304;SDS011;9278;52.156;21.048;2023-05-10T09:21:52;6.78;;;2.60;;
18304;SDS011;9278;52.156;21.048;2023-05-10T09:24:20;9.35;;;2.60;;
18304;SDS011;9278;52.156;21.048;2023-05-10T09:26:53;8.25;;;2.67;;
18304;SDS011;9278;52.156;21.048;2023-05-10T09:29:24;4.95;;;2.80;;
18304;SDS011;9278;52.156;21.048;2023-05-10T09:31:52;7.07;;;2.75;;
18304;SDS011;9278;52.156;21.048;2023-05-10T09:34:28;6.38;;;2.30;;
18304;SDS011;9278;52.156;21.048;2023-05-10T09:36:59;5.22;;;2.22;;
18304;SDS011;9278;52.156;21.048;2023-05-10T09:39:32;6.20;;;2.38;;
18304;SDS011;9278;52.156;21.048;2023-05-10T09:42:01;4.90;;;2.10;;
18304;SDS011;9278;52.156;21.048;2023-05-10T09:44:31;7.10;;;2.25;;
18304;SDS011;9278;52.156;21.048;2023-05-10T09:47:00;3.80;;;2.30;;
18304;SDS011;9278;52.156;21.048;2023-05-10T09:49:29;6.55;;;2.47;;
18304;SDS011;9278;52.156;21.048;2023-05-10T09:52:02;5.53;;;2.50;;
18304;SDS011;9278;52.156;21.048;2023-05-10T09:54:31;7.40;;;2.65;;
18304;SDS011;9278;52.156;21.048;2023-05-10T09:57:00;6.30;;;2.13;;
18304;SDS011;9278;52.156;21.048;2023-05-10T09:59:28;5.85;;;2.10;;
18304;SDS011;9278;52.156;21.048;2023-05-10T10:01:57;8.98;;;2.20;;
18304;SDS011;9278;52.156;21.048;2023-05-10T10:04:27;3.97;;;2.25;;
18304;SDS011;9278;52.156;21.048;2023-05-10T10:06:58;6.50;;;2.38;;
18304;SDS011;9278;52.156;21.048;2023-05-10T10:09:28;6.43;;;2.40;;
18304;SDS011;9278;52.156;21.048;2023-05-10T10:11:56;2.78;;;2.28;;
18304;SDS011;9278;52.156;21.048;2023-05-10T10:14:25;11.95;;;5.00;;
18304;SDS011;9278;52.156;21.048;2023-05-10T10:16:54;5.13;;;2.75;;
18304;SDS011;9278;52.156;21.048;2023-05-10T10:19:35;3.20;;;2.13;;
18304;SDS011;9278;52.156;21.048;2023-05-10T10:22:04;3.20;;;1.95;;
18304;SDS011;9278;52.156;21.048;2023-05-10T10:24:32;7.82;;;2.20;;
18304;SDS011;9278;52.156;21.048;2023-05-10T10:27:03;6.45;;;2.17;;
18304;SDS011;9278;52.156;21.048;2023-05-10T10:29:39;3.88;;;2.10;;
18304;SDS011;9278;52.156;21.048;2023-05-10T10:32:19;5.88;;;2.35;;
18304;SDS011;9278;52.156;21.048;2023-05-10T10:34:55;4.78;;;2.20;;
18304;SDS011;9278;52.156;21.048;2023-05-10T10:37:23;5.75;;;2.28;;
18304;SDS011;9278;52.156;21.048;2023-05-10T10:42:52;6.13;;;2.05;;
18304;SDS011;9278;52.156;21.048;2023-05-10T10:45:21;6.30;;;2.38;;
18304;SDS011;9278;52.156;21.048;2023-05-10T10:47:53;6.50;;;1.90;;
18304;SDS011;9278;52.156;21.048;2023-05-10T10:50:44;6.07;;;2.20;;
18304;SDS011;9278;52.156;21.048;2023-05-10T10:53:13;5.20;;;2.55;;
18304;SDS011;9278;52.156;21.048;2023-05-10T10:55:45;5.53;;;2.20;;
18304;SDS011;9278;52.156;21.048;2023-05-10T10:58:28;5.93;;;2.30;;
18304;SDS011;9278;52.156;21.048;2023-05-10T11:01:10;7.85;;;2.20;;
18304;SDS011;9278;52.156;21.048;2023-05-10T11:03:40;9.00;;;2.72;;
18304;SDS011;9278;52.156;21.048;2023-05-10T11:06:10;6.00;;;2.30;;
18304;SDS011;9278;52.156;21.048;2023-05-10T11:08:41;9.43;;;2.45;;
18304;SDS011;9278;52.156;21.048;2023-05-10T11:11:14;5.60;;;2.30;;
18304;SDS011;9278;52.156;21.048;2023-05-10T11:13:43;11.18;;;2.70;;
18304;SDS011;9278;52.156;21.048;2023-05-10T11:16:16;10.63;;;2.50;;
18304;SDS011;9278;52.156;21.048;2023-05-10T11:18:52;8.13;;;2.63;;
18304;SDS011;9278;52.156;21.048;2023-05-10T11:21:25;6.45;;;2.55;;
18304;SDS011;9278;52.156;21.048;2023-05-10T11:23:54;8.63;;;2.35;;
18304;SDS011;9278;52.156;21.048;2023-05-10T11:26:24;5.60;;;2.78;;
18304;SDS011;9278;52.156;21.048;2023-05-10T11:28:53;9.38;;;2.47;;
18304;SDS011;9278;52.156;21.048;2023-05-10T11:31:22;6.45;;;2.80;;
18304;SDS011;9278;52.156;21.048;2023-05-10T11:33:53;4.82;;;2.50;;
18304;SDS011;9278;52.156;21.048;2023-05-10T11:36:23;4.55;;;2.35;;
18304;SDS011;9278;52.156;21.048;2023-05-10T11:38:54;4.63;;;2.53;;
18304;SDS011;9278;52.156;21.048;2023-05-10T11:41:23;4.65;;;2.30;;
18304;SDS011;9278;52.156;21.048;2023-05-10T11:43:51;7.25;;;2.40;;
18304;SDS011;9278;52.156;21.048;2023-05-10T11:46:21;7.80;;;2.70;;
18304;SDS011;9278;52.156;21.048;2023-05-10T11:48:51;9.65;;;2.25;;
18304;SDS011;9278;52.156;21.048;2023-05-10T11:51:20;9.07;;;2.33;;
18304;SDS011;9278;52.156;21.048;2023-05-10T11:53:52;7.43;;;2.78;;
18304;SDS011;9278;52.156;21.048;2023-05-10T11:56:21;6.68;;;2.47;;
18304;SDS011;9278;52.156;21.048;2023-05-10T11:58:52;10.35;;;2.25;;
18304;SDS011;9278;52.156;21.048;2023-05-10T12:01:22;6.88;;;2.65;;
18304;SDS011;9278;52.156;21.048;2023-05-10T12:03:51;7.80;;;2.67;;
18304;SDS011;9278;52.156;21.048;2023-05-10T12:06:21;8.68;;;2.35;;
18304;SDS011;9278;52.156;21.048;2023-05-10T12:08:51;11.32;;;2.58;;
18304;SDS011;9278;52.156;21.048;2023-05-10T12:11:20;33.80;;;4.40;;
18304;SDS011;9278;52.156;21.048;2023-05-10T12:13:53;18.90;;;2.97;;
18304;SDS011;9278;52.156;21.048;2023-05-10T12:16:23;11.45;;;2.45;;
18304;SDS011;9278;52.156;21.048;2023-05-10T12:18:53;44.85;;;5.13;;
18304;SDS011;9278;52.156;21.048;2023-05-10T12:21:23;8.77;;;2.45;;
18304;SDS011;9278;52.156;21.048;2023-05-10T12:23:54;6.50;;;2.10;;
18304;SDS011;9278;52.156;21.048;2023-05-10T12:26:27;11.07;;;2.30;;
18304;SDS011;9278;52.156;21.048;2023-05-10T12:29:11;6.70;;;2.22;;
18304;SDS011;9278;52.156;21.048;2023-05-10T12:31:50;12.10;;;2.33;;
18304;SDS011;9278;52.156;21.048;2023-05-10T12:34:23;6.00;;;2.33;;
18304;SDS011;9278;52.156;21.048;2023-05-10T12:36:58;10.82;;;2.35;;
18304;SDS011;9278;52.156;21.048;2023-05-10T12:39:27;17.73;;;3.00;;
18304;SDS011;9278;52.156;21.048;2023-05-10T12:42:06;21.25;;;3.03;;
18304;SDS011;9278;52.156;21.048;2023-05-10T12:44:34;13.73;;;2.40;;
18304;SDS011;9278;52.156;21.048;2023-05-10T12:47:02;14.20;;;2.45;;
18304;SDS011;9278;52.156;21.048;2023-05-10T12:49:31;8.93;;;2.15;;
18304;SDS011;9278;52.156;21.048;2023-05-10T12:52:00;9.05;;;2.28;;
18304;SDS011;9278;52.156;21.048;2023-05-10T12:54:29;5.30;;;2.40;;
18304;SDS011;9278;52.156;21.048;2023-05-10T12:56:58;5.80;;;2.10;;
18304;SDS011;9278;52.156;21.048;2023-05-10T12:59:26;5.50;;;2.40;;
18304;SDS011;9278;52.156;21.048;2023-05-10T13:01:54;4.57;;;2.10;;
18304;SDS011;9278;52.156;21.048;2023-05-10T13:04:23;4.72;;;2.00;;
18304;SDS011;9278;52.156;21.048;2023-05-10T13:06:51;7.47;;;2.50;;
18304;SDS011;9278;52.156;21.048;2023-05-10T13:09:21;9.35;;;2.63;;
18304;SDS011;9278;52.156;21.048;2023-05-10T13:11:52;5.38;;;2.10;;
18304;SDS011;9278;52.156;21.048;2023-05-10T13:14:22;5.40;;;2.20;;
18304;SDS011;9278;52.156;21.048;2023-05-10T13:16:50;5.50;;;2.30;;
18304;SDS011;9278;52.156;21.048;2023-05-10T13:19:18;7.88;;;2.15;;
18304;SDS011;9278;52.156;21.048;2023-05-10T13:21:48;7.07;;;2.13;;
18304;SDS011;9278;52.156;21.048;2023-05-10T13:24:16;4.97;;;2.20;;
18304;SDS011;9278;52.156;21.048;2023-05-10T13:26:45;7.78;;;2.35;;
18304;SDS011;9278;52.156;21.048;2023-05-10T13:29:14;6.22;;;2.05;;
18304;SDS011;9278;52.156;21.048;2023-05-10T13:31:45;3.75;;;1.95;;
18304;SDS011;9278;52.156;21.048;2023-05-10T13:34:13;5.55;;;2.85;;
18304;SDS011;9278;52.156;21.048;2023-05-10T13:36:42;10.30;;;2.30;;
18304;SDS011;9278;52.156;21.048;2023-05-10T13:39:11;4.35;;;2.22;;
18304;SDS011;9278;52.156;21.048;2023-05-10T13:41:40;8.88;;;2.30;;
18304;SDS011;9278;52.156;21.048;2023-05-10T13:44:08;7.72;;;2.33;;
18304;SDS011;9278;52.156;21.048;2023-05-10T13:46:40;10.52;;;2.42;;
18304;SDS011;9278;52.156;21.048;2023-05-10T13:49:08;10.25;;;2.38;;
18304;SDS011;9278;52.156;21.048;2023-05-10T13:51:37;4.00;;;1.90;;
18304;SDS011;9278;52.156;21.048;2023-05-10T13:54:06;10.05;;;2.55;;
18304;SDS011;9278;52.156;21.048;2023-05-10T13:56:35;6.28;;;2.00;;
18304;SDS011;9278;52.156;21.048;2023-05-10T13:59:04;9.35;;;2.35;;
18304;SDS011;9278;52.156;21.048;2023-05-10T14:01:34;8.23;;;2.10;;
18304;SDS011;9278;52.156;21.048;2023-05-10T14:04:04;7.30;;;2.35;;
18304;SDS011;9278;52.156;21.048;2023-05-10T14:06:33;5.57;;;2.00;;
18304;SDS011;9278;52.156;21.048;2023-05-10T14:09:02;5.50;;;2.10;;
18304;SDS011;9278;52.156;21.048;2023-05-10T14:11:30;6.85;;;2.28;;
18304;SDS011;9278;52.156;21.048;2023-05-10T14:13:59;6.13;;;2.40;;
18304;SDS011;9278;52.156;21.048;2023-05-10T14:16:28;5.45;;;1.92;;
18304;SDS011;9278;52.156;21.048;2023-05-10T14:18:56;5.57;;;2.22;;
18304;SDS011;9278;52.156;21.048;2023-05-10T14:21:26;7.22;;;2.25;;
18304;SDS011;9278;52.156;21.048;2023-05-10T14:23:55;7.13;;;2.00;;
18304;SDS011;9278;52.156;21.048;2023-05-10T14:26:24;7.63;;;2.40;;
18304;SDS011;9278;52.156;21.048;2023-05-10T14:28:52;7.50;;;2.05;;
18304;SDS011;9278;52.156;21.048;2023-05-10T14:31:21;6.78;;;2.30;;
18304;SDS011;9278;52.156;21.048;2023-05-10T14:33:51;7.60;;;2.15;;
18304;SDS011;9278;52.156;21.048;2023-05-10T14:36:20;4.20;;;2.50;;
18304;SDS011;9278;52.156;21.048;2023-05-10T14:38:50;5.82;;;2.00;;
18304;SDS011;9278;52.156;21.048;2023-05-10T14:41:19;5.60;;;1.92;;
18304;SDS011;9278;52.156;21.048;2023-05-10T14:43:48;7.80;;;2.13;;
18304;SDS011;9278;52.156;21.048;2023-05-10T14:46:16;4.55;;;2.08;;
18304;SDS011;9278;52.156;21.048;2023-05-10T14:48:45;6.10;;;2.00;;
18304;SDS011;9278;52.156;21.048;2023-05-10T14:51:14;4.30;;;1.88;;
18304;SDS011;9278;52.156;21.048;2023-05-10T14:53:42;6.00;;;2.60;;
18304;SDS011;9278;52.156;21.048;2023-05-10T14:56:12;4.88;;;2.22;;
18304;SDS011;9278;52.156;21.048;2023-05-10T14:58:41;5.30;;;2.42;;
18304;SDS011;9278;52.156;21.048;2023-05-10T15:01:10;5.88;;;2.30;;
18304;SDS011;9278;52.156;21.048;2023-05-10T15:03:39;4.00;;;2.42;;
18304;SDS011;9278;52.156;21.048;2023-05-10T15:06:08;5.50;;;2.15;;